Terminal Aerodrome Forecast
Issued by NWS

Home | Current Version | Previous Version | Text Only | Print | Product List | Glossary On
Versions: 1 2 3 4 5 6 7 8 9 10 11 12 13 14 15 16 17 18 19 20 21 22
000
FTUS41 KBOX 282333
TAFHYA
TAF
KHYA 282333Z 2900/2924 16006KT P6SM FEW250
     FM290800 21008KT P6SM BKN070
     FM291000 22008KT P6SM BKN050
     FM291500 23008KT P6SM SCT080
     FM291600 24008KT P6SM SCT200
     FM292100 29006KT P6SM SCT060
     FM292300 33006KT P6SM SCT060=

USA.gov is the U.S. government's official web portal to all federal, state and local government web resources and services.